Time;durP1;ratioP1;P1;durP2;ratioP2;P2;SDS_P1;SDS_P2;PMS_P1;PMS_P2;Temp;Humidity;BMP_temperature;BMP_pressure;BME280_temperature;BME280_humidity;BME280_pressure;Samples;Min_cycle;Max_cycle;Signal;HPM_P1;HPM_P2
2022/01/15 00:00:12;;;;;;;1.90;0.85;;;;;;;3.58;55.66;103258.53;5051570;28;20489;-73
2022/01/15 00:02:40;;;;;;;2.55;0.90;;;;;;;3.42;55.51;103267.59;5045608;28;20040;-72
2022/01/15 00:05:06;;;;;;;8.95;1.30;;;;;;;3.33;55.55;103265.59;5036064;28;20041;-73
2022/01/15 00:07:34;;;;;;;4.85;0.90;;;;;;;3.25;55.71;103267.09;5050340;28;20056;-73
2022/01/15 00:09:59;;;;;;;3.03;0.88;;;;;;;3.34;55.46;103245.81;5023833;28;20056;-73
2022/01/15 00:12:25;;;;;;;1.75;0.80;;;;;;;3.31;55.54;103246.59;5038103;28;20064;-73
2022/01/15 00:14:52;;;;;;;3.15;0.93;;;;;;;3.20;55.26;103250.53;5052927;28;20989;-72
2022/01/15 00:17:32;;;;;;;2.22;0.40;;;;;;;3.17;55.52;103248.75;5033290;28;20040;-71
2022/01/15 00:20:05;;;;;;;1.60;0.95;;;;;;;3.22;55.35;103235.09;5055019;28;20043;-72
2022/01/15 00:22:30;;;;;;;1.45;0.22;;;;;;;3.24;55.36;103243.78;5037803;28;20033;-73
2022/01/15 00:24:56;;;;;;;2.17;0.70;;;;;;;3.24;55.43;103248.94;5050841;28;20040;-73
2022/01/15 00:27:21;;;;;;;2.08;0.80;;;;;;;3.18;55.56;103247.94;5050688;28;20041;-72
2022/01/15 00:29:47;;;;;;;1.42;0.40;;;;;;;3.21;55.95;103247.16;5040058;28;20134;-72
2022/01/15 00:32:12;;;;;;;1.90;0.57;;;;;;;3.26;55.85;103242.09;5044665;28;20094;-73
2022/01/15 00:34:37;;;;;;;2.42;0.80;;;;;;;3.34;56.05;103235.50;5039299;28;20075;-73
2022/01/15 00:37:03;;;;;;;2.95;1.02;;;;;;;3.46;55.51;103235.81;5038883;28;20163;-72
2022/01/15 00:39:29;;;;;;;3.17;0.65;;;;;;;3.38;55.47;103226.97;5036734;28;20388;-72
2022/01/15 00:41:55;;;;;;;1.63;0.55;;;;;;;3.33;55.35;103225.97;5035777;28;20106;-71
2022/01/15 00:44:23;;;;;;;1.85;0.90;;;;;;;3.33;55.46;103228.56;5028329;28;20136;-73
2022/01/15 00:46:51;;;;;;;3.47;0.60;;;;;;;3.36;55.65;103221.78;5030633;28;20407;-73
2022/01/15 00:49:17;;;;;;;1.70;0.40;;;;;;;3.42;55.65;103225.34;5042406;28;20727;-73
2022/01/15 00:51:42;;;;;;;8.15;1.08;;;;;;;3.44;55.56;103219.38;5052975;28;20048;-71
2022/01/15 00:54:08;;;;;;;1.40;0.50;;;;;;;3.43;55.35;103220.22;5027710;28;20039;-72
2022/01/15 00:56:34;;;;;;;2.58;0.40;;;;;;;3.39;55.34;103213.22;5030885;28;20696;-72
2022/01/15 00:58:59;;;;;;;2.53;0.90;;;;;;;3.37;55.40;103214.88;5032820;28;20045;-72
2022/01/15 01:01:25;;;;;;;1.90;0.57;;;;;;;3.39;55.09;103214.09;5054988;28;20037;-73
2022/01/15 01:03:53;;;;;;;2.67;0.98;;;;;;;3.34;55.72;103213.09;5019861;28;20043;-73
2022/01/15 01:06:19;;;;;;;3.15;1.25;;;;;;;3.35;55.56;103220.00;5047984;28;20037;-74
2022/01/15 01:08:44;;;;;;;3.95;1.10;;;;;;;3.43;55.92;103217.66;5033010;28;20048;-74
2022/01/15 01:11:22;;;;;;;6.22;1.30;;;;;;;3.50;55.31;103216.97;5043561;28;20566;-74
2022/01/15 01:24:25;;;;;;;2.88;1.40;;;;;;;3.46;55.50;103189.28;5044708;28;20055;-71
2022/01/15 01:30:20;;;;;;;4.43;1.40;;;;;;;3.50;55.49;103180.78;4989207;28;20088;-70
2022/01/15 01:32:52;;;;;;;5.40;1.98;;;;;;;3.48;56.00;103185.03;4993772;28;20475;-74
2022/01/15 01:35:34;;;;;;;5.32;1.42;;;;;;;3.61;55.64;103183.66;5031348;28;20060;-74
2022/01/15 01:38:10;;;;;;;3.95;1.27;;;;;;;3.61;55.79;103183.66;5019400;28;20121;-74
2022/01/15 01:40:41;;;;;;;5.82;1.98;;;;;;;3.55;55.70;103174.00;5047772;28;20039;-73
2022/01/15 01:45:53;;;;;;;6.18;2.10;;;;;;;3.52;55.62;103168.75;5045537;28;20503;-74
2022/01/15 01:48:21;;;;;;;4.35;2.08;;;;;;;3.46;55.31;103163.41;5042317;28;20056;-74
2022/01/15 01:50:46;;;;;;;2.80;1.40;;;;;;;3.41;55.08;103165.03;5055921;28;20063;-74
2022/01/15 01:53:12;;;;;;;3.42;1.40;;;;;;;3.32;54.97;103169.94;5043924;28;22092;-74
2022/01/15 01:55:37;;;;;;;7.88;2.20;;;;;;;3.12;55.03;103172.81;5041587;28;20569;-74
2022/01/15 01:58:03;;;;;;;3.45;1.45;;;;;;;3.07;55.56;103165.75;5037857;28;20043;-74
2022/01/15 02:00:30;;;;;;;4.22;1.80;;;;;;;3.05;55.45;103162.28;5040786;28;20056;-74
2022/01/15 02:02:58;;;;;;;3.00;1.42;;;;;;;3.08;55.34;103155.47;5029386;28;20020;-74
2022/01/15 02:05:24;;;;;;;9.50;2.60;;;;;;;3.11;55.47;103146.91;5028199;28;20040;-73
2022/01/15 02:07:50;;;;;;;4.25;2.00;;;;;;;3.13;55.87;103153.88;5036106;28;20052;-73
2022/01/15 02:10:21;;;;;;;4.82;1.95;;;;;;;3.12;55.88;103157.31;5055093;28;20055;-72
2022/01/15 02:12:50;;;;;;;3.42;1.17;;;;;;;3.19;55.75;103159.22;5052178;28;20028;-73
2022/01/15 02:15:18;;;;;;;2.97;1.67;;;;;;;3.28;55.44;103147.41;5050737;28;20052;-72
2022/01/15 02:17:45;;;;;;;4.47;2.10;;;;;;;3.34;55.80;103147.59;5028189;28;20051;-73
2022/01/15 02:25:46;;;;;;;3.88;1.20;;;;;;;3.32;55.63;103134.63;5051172;28;20078;-74
2022/01/15 02:28:12;;;;;;;5.30;1.73;;;;;;;3.27;55.99;103137.88;5027758;28;20040;-73
2022/01/15 02:30:38;;;;;;;4.95;1.20;;;;;;;3.27;55.89;103127.53;5051582;28;21048;-74
2022/01/15 02:33:08;;;;;;;8.52;2.10;;;;;;;3.44;56.07;103122.84;5022520;28;20035;-73
2022/01/15 02:35:34;;;;;;;5.90;1.60;;;;;;;3.55;55.77;103122.28;5016534;28;20102;-74
2022/01/15 02:38:08;;;;;;;2.30;1.05;;;;;;;3.34;56.16;103116.59;5031791;28;20377;-74
2022/01/15 02:40:35;;;;;;;4.82;1.48;;;;;;;3.02;56.54;103111.38;5045086;28;20028;-74
2022/01/15 02:43:09;;;;;;;2.13;0.80;;;;;;;3.28;56.61;103116.38;5052785;28;20544;-74
2022/01/15 02:45:42;;;;;;;2.83;0.80;;;;;;;3.41;56.75;103118.47;5052540;28;20029;-74
2022/01/15 02:48:17;;;;;;;4.75;0.90;;;;;;;3.42;56.30;103119.34;5052432;28;20040;-74
2022/01/15 02:50:46;;;;;;;2.60;0.93;;;;;;;3.37;56.80;103121.81;5036397;28;20398;-73
2022/01/15 02:53:16;;;;;;;3.03;1.75;;;;;;;3.46;56.37;103116.88;5015020;28;20032;-74
2022/01/15 02:55:45;;;;;;;2.28;0.55;;;;;;;3.51;56.74;103110.09;5044618;28;20040;-75
2022/01/15 02:58:11;;;;;;;2.67;1.17;;;;;;;3.52;56.09;103111.00;5048768;28;20697;-74
2022/01/15 03:00:40;;;;;;;2.70;0.77;;;;;;;3.52;56.11;103111.88;5045888;28;20077;-73
2022/01/15 03:03:05;;;;;;;2.83;0.68;;;;;;;3.57;56.14;103112.84;5027790;28;20028;-74
2022/01/15 03:05:31;;;;;;;3.65;1.25;;;;;;;3.43;56.16;103111.66;5048710;28;20063;-76
2022/01/15 03:07:56;;;;;;;3.15;1.30;;;;;;;3.45;56.59;103099.63;5050114;28;20043;-73
2022/01/15 03:10:24;;;;;;;5.97;1.55;;;;;;;3.51;56.43;103089.41;5034307;28;20036;-74
2022/01/15 03:12:51;;;;;;;3.05;1.75;;;;;;;3.48;56.11;103099.69;5029150;28;20040;-74
2022/01/15 03:15:19;;;;;;;3.90;1.35;;;;;;;3.53;56.23;103107.56;5043557;28;20451;-74
2022/01/15 03:17:48;;;;;;;3.10;1.00;;;;;;;3.59;56.14;103103.44;5037081;28;20033;-74
2022/01/15 03:20:18;;;;;;;5.85;1.40;;;;;;;3.56;56.28;103098.19;5033669;28;20144;-74
2022/01/15 03:22:47;;;;;;;2.63;1.07;;;;;;;3.57;56.36;103091.31;5020807;28;20033;-73
2022/01/15 03:25:13;;;;;;;3.58;1.38;;;;;;;3.64;55.94;103089.75;5035173;28;20295;-73
2022/01/15 03:27:39;;;;;;;2.92;1.23;;;;;;;3.51;55.94;103099.75;5049729;28;20068;-74
2022/01/15 03:30:06;;;;;;;5.53;1.40;;;;;;;3.47;55.85;103095.38;5036773;28;20152;-74
2022/01/15 03:32:32;;;;;;;3.05;1.48;;;;;;;3.42;56.00;103099.53;5037030;28;20044;-72
2022/01/15 03:34:58;;;;;;;8.98;2.35;;;;;;;3.34;55.81;103086.44;5028997;28;20045;-73
2022/01/15 03:37:23;;;;;;;4.85;2.35;;;;;;;3.34;56.03;103080.38;5042705;28;20040;-72
2022/01/15 03:39:49;;;;;;;5.35;1.95;;;;;;;3.26;55.89;103074.09;5045777;28;20446;-73
2022/01/15 03:42:15;;;;;;;5.63;2.00;;;;;;;3.21;56.04;103078.28;5035768;28;20048;-72
2022/01/15 03:44:48;;;;;;;5.60;2.38;;;;;;;3.28;55.64;103070.72;5044590;28;20661;-72
2022/01/15 03:47:15;;;;;;;8.40;2.35;;;;;;;3.19;55.68;103071.34;5028323;28;20131;-72
2022/01/15 03:49:41;;;;;;;5.68;2.60;;;;;;;3.11;56.42;103078.06;5018932;28;20076;-72
2022/01/15 03:52:08;;;;;;;5.40;2.20;;;;;;;3.18;55.87;103067.03;5025493;28;20091;-73
2022/01/15 03:54:35;;;;;;;7.07;2.35;;;;;;;3.14;55.89;103072.09;5040509;28;20045;-73
2022/01/15 03:57:01;;;;;;;5.45;2.38;;;;;;;3.02;55.93;103080.38;5034280;28;20067;-74
2022/01/15 03:59:27;;;;;;;9.90;2.38;;;;;;;2.91;55.63;103074.03;5039124;28;20120;-73
2022/01/15 04:01:55;;;;;;;4.13;2.25;;;;;;;2.97;55.46;103071.63;5046590;28;20029;-73
2022/01/15 04:04:20;;;;;;;5.53;2.22;;;;;;;2.96;55.18;103077.63;5050131;28;20131;-72
2022/01/15 04:06:46;;;;;;;4.07;2.20;;;;;;;2.82;55.39;103078.94;5053912;28;20029;-73
2022/01/15 04:09:12;;;;;;;5.15;2.70;;;;;;;2.69;55.64;103091.53;5022475;28;20546;-73
2022/01/15 04:11:38;;;;;;;3.00;2.08;;;;;;;2.74;55.74;103100.28;5028800;28;20047;-72
2022/01/15 04:14:05;;;;;;;10.98;2.80;;;;;;;2.74;56.00;103092.53;5046116;28;20068;-72
2022/01/15 04:16:31;;;;;;;7.07;2.67;;;;;;;2.87;56.05;103090.31;5021049;28;20546;-73
2022/01/15 04:19:00;;;;;;;4.55;2.08;;;;;;;2.95;56.08;103096.53;5034237;28;20048;-72
2022/01/15 04:21:27;;;;;;;5.72;2.58;;;;;;;2.93;55.74;103085.28;5026181;28;20083;-73
2022/01/15 04:24:00;;;;;;;4.85;2.63;;;;;;;3.02;56.10;103082.94;5053800;28;20044;-73
2022/01/15 04:26:29;;;;;;;5.55;2.85;;;;;;;3.15;56.26;103076.41;5055633;28;20110;-73
2022/01/15 04:29:02;;;;;;;6.68;2.55;;;;;;;3.22;56.32;103070.56;5045985;28;20044;-73
2022/01/15 04:31:28;;;;;;;5.15;2.53;;;;;;;3.17;56.25;103078.19;5054597;28;20028;-72
2022/01/15 04:33:53;;;;;;;6.03;2.58;;;;;;;3.17;56.03;103082.50;5039496;28;20437;-72
2022/01/15 04:36:21;;;;;;;7.13;2.55;;;;;;;3.22;56.21;103082.59;5029577;28;20033;-72
2022/01/15 04:38:51;;;;;;;6.40;2.35;;;;;;;3.25;56.04;103072.34;5053287;28;20044;-72
2022/01/15 04:41:19;;;;;;;4.00;1.77;;;;;;;3.27;56.04;103062.91;5054252;28;20083;-72
2022/01/15 04:43:48;;;;;;;6.32;1.67;;;;;;;3.25;56.20;103064.59;5045118;28;20791;-72
2022/01/15 04:46:15;;;;;;;2.60;0.82;;;;;;;3.28;56.30;103068.13;5055527;28;20036;-71
2022/01/15 04:48:41;;;;;;;4.05;1.80;;;;;;;3.21;56.07;103063.66;5039350;28;20568;-72
2022/01/15 04:51:06;;;;;;;10.00;2.60;;;;;;;3.15;56.02;103072.09;5047948;28;20039;-71
2022/01/15 04:53:35;;;;;;;4.18;1.95;;;;;;;3.18;56.23;103064.44;5053181;28;20777;-72
2022/01/15 04:56:00;;;;;;;3.60;1.85;;;;;;;3.22;56.01;103059.34;5042821;28;20037;-71
2022/01/15 04:58:27;;;;;;;3.88;2.35;;;;;;;3.25;56.14;103055.16;5053553;28;20051;-72
2022/01/15 05:00:53;;;;;;;3.67;2.40;;;;;;;3.27;55.79;103063.81;5038221;28;20036;-73
2022/01/15 05:03:21;;;;;;;3.75;1.67;;;;;;;3.21;55.70;103062.78;5038530;28;20036;-72
2022/01/15 05:05:46;;;;;;;4.65;2.20;;;;;;;3.22;55.95;103064.53;5036784;28;20043;-73
2022/01/15 05:08:12;;;;;;;3.50;1.50;;;;;;;3.28;56.02;103049.19;5045582;28;20044;-74
2022/01/15 05:10:45;;;;;;;4.75;1.90;;;;;;;3.24;55.76;103047.34;5037739;28;20111;-68
2022/01/15 05:13:11;;;;;;;3.15;1.50;;;;;;;3.25;56.05;103042.22;5038713;28;20029;-68
2022/01/15 05:15:36;;;;;;;4.63;1.45;;;;;;;3.24;56.09;103045.63;5015486;28;20033;-68
2022/01/15 05:18:04;;;;;;;2.90;1.70;;;;;;;3.15;55.93;103046.25;5050358;28;20127;-68
2022/01/15 05:20:29;;;;;;;3.78;1.23;;;;;;;3.11;55.89;103048.72;5051767;28;20109;-68
2022/01/15 05:22:55;;;;;;;2.83;1.45;;;;;;;3.08;56.15;103046.94;5051506;28;20698;-67
2022/01/15 05:25:20;;;;;;;12.75;1.83;;;;;;;3.17;56.00;103039.44;5045816;28;20037;-68
2022/01/15 05:27:48;;;;;;;21.10;2.17;;;;;;;3.17;56.11;103042.00;5052454;28;20060;-68
2022/01/15 05:30:14;;;;;;;3.05;1.63;;;;;;;3.22;56.04;103049.00;5050952;28;20132;-71
2022/01/15 05:32:39;;;;;;;41.47;2.25;;;;;;;3.12;55.82;103047.91;5036035;28;20055;-73
2022/01/15 05:35:08;;;;;;;3.17;1.05;;;;;;;3.04;55.98;103039.94;5036114;28;20040;-71
2022/01/15 05:37:37;;;;;;;2.58;0.73;;;;;;;3.08;55.92;103046.94;5020595;28;20123;-72
2022/01/15 05:40:07;;;;;;;25.30;1.50;;;;;;;3.05;56.19;103036.53;5043925;28;20534;-73
2022/01/15 05:42:33;;;;;;;9.77;1.00;;;;;;;3.11;56.02;103035.81;5041381;28;20025;-73
2022/01/15 05:44:58;;;;;;;1.10;0.40;;;;;;;3.18;56.19;103038.59;5051221;28;20507;-72
2022/01/15 05:47:24;;;;;;;6.10;0.70;;;;;;;3.15;55.87;103041.09;5018923;28;20083;-72
2022/01/15 05:49:51;;;;;;;2.05;0.90;;;;;;;3.04;56.07;103039.94;5047724;28;20056;-71
2022/01/15 05:52:16;;;;;;;2.40;0.65;;;;;;;3.12;56.38;103042.75;5037057;28;20033;-73
2022/01/15 05:54:42;;;;;;;24.20;1.45;;;;;;;3.13;55.76;103036.72;5037920;28;20059;-72
2022/01/15 05:57:10;;;;;;;2.67;0.70;;;;;;;3.11;56.31;103041.88;5048594;28;20058;-72
2022/01/15 05:59:35;;;;;;;5.43;0.70;;;;;;;3.10;56.11;103037.53;5045609;28;20113;-72
2022/01/15 06:02:01;;;;;;;44.92;1.90;;;;;;;3.02;56.07;103043.31;5051749;28;20115;-72
2022/01/15 06:04:29;;;;;;;1.63;0.70;;;;;;;3.04;56.15;103049.41;5035915;28;20140;-72
2022/01/15 06:06:56;;;;;;;3.70;0.82;;;;;;;3.02;56.15;103040.75;5050772;28;20704;-72
2022/01/15 06:09:22;;;;;;;3.22;1.02;;;;;;;2.89;56.11;103039.53;5049340;28;20071;-71
2022/01/15 06:11:47;;;;;;;2.75;0.77;;;;;;;2.75;56.47;103037.44;5029786;28;20037;-71
2022/01/15 06:14:13;;;;;;;15.10;1.15;;;;;;;2.83;56.32;103039.41;5026353;28;20053;-72
2022/01/15 06:16:38;;;;;;;1.30;0.60;;;;;;;2.64;56.50;103023.38;5020263;28;20629;-71
2022/01/15 06:19:03;;;;;;;1.75;0.45;;;;;;;2.70;56.06;103033.00;5020838;28;20048;-72
2022/01/15 06:21:31;;;;;;;14.38;1.27;;;;;;;2.55;56.44;103030.88;5044481;28;20757;-71
2022/01/15 06:23:57;;;;;;;21.38;1.25;;;;;;;2.61;56.50;103031.03;5033775;28;20047;-71
2022/01/15 06:26:22;;;;;;;3.00;0.55;;;;;;;2.72;56.03;103031.34;5036733;28;20041;-71
2022/01/15 06:28:48;;;;;;;2.33;1.02;;;;;;;2.67;55.82;103023.47;5040375;28;20041;-70
2022/01/15 06:31:15;;;;;;;1.83;0.60;;;;;;;2.59;55.95;103030.13;5051434;28;20036;-72
2022/01/15 06:33:40;;;;;;;1.60;0.68;;;;;;;2.48;56.05;103022.06;5009749;28;20080;-66
2022/01/15 06:36:08;;;;;;;2.08;0.98;;;;;;;2.41;56.05;103015.00;5037004;28;21171;-67
2022/01/15 06:38:34;;;;;;;1.83;0.70;;;;;;;2.42;55.82;103023.59;5050265;28;20102;-73
2022/01/15 06:41:02;;;;;;;1.95;0.98;;;;;;;2.33;55.70;103019.97;5052175;28;20446;-73
2022/01/15 06:43:27;;;;;;;1.73;0.70;;;;;;;2.30;56.13;103017.25;5026472;28;20048;-69
2022/01/15 06:45:54;;;;;;;1.70;0.65;;;;;;;2.35;55.64;103018.28;5051811;28;20048;-68
2022/01/15 06:48:19;;;;;;;2.15;1.05;;;;;;;2.33;55.68;103021.63;5049719;28;20845;-69
2022/01/15 06:50:47;;;;;;;2.80;1.00;;;;;;;2.21;55.93;103022.16;5040845;28;20037;-73
2022/01/15 06:53:13;;;;;;;2.35;0.98;;;;;;;2.23;55.88;103023.09;5047933;28;20149;-73
2022/01/15 06:55:39;;;;;;;1.83;0.77;;;;;;;2.18;56.00;103023.78;5035972;28;20039;-72
2022/01/15 06:58:07;;;;;;;2.80;1.23;;;;;;;2.17;56.20;103020.31;5049260;28;20029;-72
2022/01/15 07:00:33;;;;;;;2.58;1.50;;;;;;;2.23;55.83;103015.34;5051200;28;20040;-72
2022/01/15 07:03:04;;;;;;;4.15;1.95;;;;;;;2.19;55.85;103013.50;5037047;28;20972;-73
2022/01/15 07:05:37;;;;;;;20.70;6.97;;;;;;;2.17;55.97;103020.31;5050904;28;20025;-72
2022/01/15 07:08:02;;;;;;;8.82;5.10;;;;;;;2.15;56.29;103014.22;5048915;28;20040;-72
2022/01/15 07:10:31;;;;;;;8.15;3.88;;;;;;;2.25;56.19;103017.97;5027989;28;20038;-73
2022/01/15 07:13:03;;;;;;;23.92;4.00;;;;;;;2.31;56.33;103019.03;5023842;28;20551;-73
2022/01/15 07:15:29;;;;;;;82.53;4.38;;;;;;;2.05;56.48;103009.66;5051950;28;20042;-72
2022/01/15 07:17:58;;;;;;;15.38;2.88;;;;;;;2.06;56.37;103011.38;5048968;28;20028;-69
2022/01/15 07:20:24;;;;;;;4.20;1.70;;;;;;;2.03;56.34;103017.34;5046020;28;20041;-73
2022/01/15 07:22:49;;;;;;;4.85;1.10;;;;;;;2.04;56.00;103013.03;5034914;28;20138;-73
2022/01/15 07:25:15;;;;;;;4.90;1.67;;;;;;;2.00;56.53;103011.19;5047640;28;20664;-73
2022/01/15 07:27:41;;;;;;;11.82;1.65;;;;;;;1.96;56.37;103004.22;5031691;28;20051;-73
2022/01/15 07:30:09;;;;;;;5.20;1.65;;;;;;;1.99;56.24;103004.31;5038338;28;20663;-72
2022/01/15 07:32:35;;;;;;;15.20;1.95;;;;;;;1.88;56.30;103001.38;5032279;28;20047;-72
2022/01/15 07:35:04;;;;;;;7.30;1.27;;;;;;;1.83;56.13;102998.69;5052507;28;20080;-73
2022/01/15 07:37:30;;;;;;;3.13;1.65;;;;;;;1.86;56.12;102991.06;5051391;28;20747;-73
2022/01/15 07:39:56;;;;;;;7.05;1.20;;;;;;;1.86;56.08;102997.88;5052141;28;20101;-71
2022/01/15 07:42:22;;;;;;;2.13;0.95;;;;;;;1.86;56.06;102998.78;5038722;28;20385;-74
2022/01/15 07:44:47;;;;;;;11.55;1.55;;;;;;;1.94;56.02;103002.44;5036121;28;20075;-73
2022/01/15 07:47:15;;;;;;;1.88;0.90;;;;;;;1.97;55.97;103005.97;5023476;28;20036;-69
2022/01/15 07:49:41;;;;;;;6.55;1.30;;;;;;;1.89;55.96;103006.59;5038045;28;20537;-72
2022/01/15 07:52:06;;;;;;;4.53;1.25;;;;;;;1.88;55.83;103002.25;5039041;28;20037;-72
2022/01/15 07:54:32;;;;;;;4.18;1.48;;;;;;;1.82;55.79;103007.25;5029489;28;20041;-72
2022/01/15 07:56:58;;;;;;;2.53;1.90;;;;;;;1.84;55.96;102994.38;5028500;28;20129;-71
2022/01/15 07:59:25;;;;;;;3.78;2.17;;;;;;;1.83;56.04;102998.69;5039002;28;20049;-72
2022/01/15 08:01:51;;;;;;;4.00;2.00;;;;;;;1.71;56.05;102990.59;5035237;28;20033;-72
2022/01/15 08:04:17;;;;;;;2.78;1.02;;;;;;;1.71;56.14;102996.59;5042109;28;20042;-71
2022/01/15 08:06:42;;;;;;;2.55;1.00;;;;;;;1.74;56.40;102995.81;5033062;28;20037;-71
2022/01/15 08:09:08;;;;;;;4.97;1.42;;;;;;;1.97;56.51;102999.09;5041930;28;20047;-71
2022/01/15 08:11:34;;;;;;;9.80;1.40;;;;;;;2.09;56.21;102999.47;5014863;28;20095;-71
2022/01/15 08:14:00;;;;;;;4.50;0.95;;;;;;;2.23;56.18;102997.28;5015629;28;20541;-71
2022/01/15 08:16:27;;;;;;;3.10;1.55;;;;;;;2.31;55.88;102998.38;5011944;28;20092;-71
2022/01/15 08:18:52;;;;;;;2.60;1.23;;;;;;;2.42;56.13;103001.28;5022458;28;20186;-71
2022/01/15 08:21:20;;;;;;;2.45;0.95;;;;;;;2.69;56.13;103000.25;5047952;28;20029;-72
2022/01/15 08:23:46;;;;;;;5.20;2.03;;;;;;;2.93;55.94;102989.72;5028584;28;20037;-72
2022/01/15 08:26:12;;;;;;;4.20;1.63;;;;;;;3.05;54.84;102995.19;5054777;28;20048;-72
2022/01/15 08:28:38;;;;;;;5.65;1.40;;;;;;;3.25;55.30;102993.13;5029394;28;20045;-71
2022/01/15 08:31:06;;;;;;;6.75;2.42;;;;;;;3.51;54.99;102982.53;5036784;28;20058;-71
2022/01/15 08:33:32;;;;;;;4.72;2.35;;;;;;;3.69;54.34;102988.13;5045940;28;20044;-70
2022/01/15 08:35:58;;;;;;;4.32;1.77;;;;;;;3.91;54.27;102986.91;5033794;28;20028;-72
2022/01/15 08:38:26;;;;;;;10.73;1.52;;;;;;;3.99;53.24;102990.53;5050189;28;20043;-70
2022/01/15 08:40:52;;;;;;;4.32;1.92;;;;;;;3.92;53.83;102987.78;5023628;28;20035;-71
2022/01/15 08:43:18;;;;;;;2.75;1.35;;;;;;;4.14;54.28;102989.09;5050637;28;20041;-73
2022/01/15 08:45:47;;;;;;;3.60;1.23;;;;;;;4.04;52.93;102984.59;5046928;28;20036;-71
2022/01/15 08:48:19;;;;;;;4.63;0.82;;;;;;;3.94;53.83;102986.97;5054600;28;20064;-71
2022/01/15 08:50:50;;;;;;;3.88;1.35;;;;;;;3.83;53.41;102980.72;5036086;28;20036;-71
2022/01/15 08:53:21;;;;;;;8.15;2.15;;;;;;;4.04;54.06;102976.81;5032621;28;20059;-71
2022/01/15 08:55:47;;;;;;;5.35;1.92;;;;;;;4.08;53.27;102976.91;5041546;28;20090;-71
2022/01/15 08:58:13;;;;;;;2.53;1.00;;;;;;;4.31;53.51;102969.59;5052808;28;20530;-72
2022/01/15 09:00:39;;;;;;;6.72;1.80;;;;;;;4.32;52.46;102962.72;5049587;28;20032;-70
2022/01/15 09:03:07;;;;;;;2.63;1.38;;;;;;;4.75;53.05;102968.72;5034884;28;20044;-71
2022/01/15 09:05:36;;;;;;;7.32;1.88;;;;;;;5.21;51.89;102967.81;5021563;28;20058;-71
2022/01/15 09:08:09;;;;;;;5.78;1.70;;;;;;;6.06;51.98;102959.50;5049997;28;20391;-71
2022/01/15 09:10:41;;;;;;;7.53;1.88;;;;;;;6.58;49.90;102953.16;5035737;28;20024;-71
2022/01/15 09:13:10;;;;;;;5.30;2.30;;;;;;;7.26;50.10;102942.47;5048245;28;20075;-71
2022/01/15 09:15:36;;;;;;;5.07;2.15;;;;;;;7.59;49.40;102940.97;5034242;28;20539;-71
2022/01/15 09:18:02;;;;;;;3.00;2.10;;;;;;;7.72;46.46;102942.78;5040019;28;20548;-71
2022/01/15 09:20:28;;;;;;;16.52;2.63;;;;;;;7.63;46.46;102947.94;5030588;28;20050;-71
2022/01/15 09:22:54;;;;;;;3.97;1.92;;;;;;;7.89;47.22;102939.38;5049833;28;20224;-70
2022/01/15 09:25:20;;;;;;;7.78;2.38;;;;;;;7.68;45.47;102933.22;5049920;28;20036;-71
2022/01/15 09:30:32;;;;;;;7.15;2.20;;;;;;;6.90;44.86;102923.13;5042735;28;20051;-70
2022/01/15 09:32:58;;;;;;;4.65;1.92;;;;;;;6.72;45.69;102915.19;5032745;28;20033;-70
2022/01/15 09:35:28;;;;;;;5.47;2.00;;;;;;;6.51;46.57;102931.44;5049006;28;20036;-72
2022/01/15 09:37:55;;;;;;;4.65;2.05;;;;;;;6.92;47.83;102923.16;5026264;28;20465;-70
2022/01/15 09:40:25;;;;;;;3.60;1.80;;;;;;;7.22;46.37;102919.91;5038557;28;20036;-71
2022/01/15 09:42:52;;;;;;;6.72;1.92;;;;;;;7.69;44.28;102914.16;5034600;28;20462;-70
2022/01/15 09:45:19;;;;;;;7.53;2.22;;;;;;;8.12;45.47;102919.50;5028746;28;20057;-71
2022/01/15 09:47:45;;;;;;;7.20;2.65;;;;;;;8.46;41.16;102914.38;5045866;28;20553;-71
2022/01/15 09:50:16;;;;;;;10.85;2.83;;;;;;;7.98;44.17;102921.22;5041293;28;20222;-70
2022/01/15 09:52:41;;;;;;;8.18;2.40;;;;;;;8.47;43.23;102916.13;5032919;28;20530;-71
2022/01/15 09:55:12;;;;;;;12.45;3.08;;;;;;;7.50;44.39;102914.88;5023943;28;20048;-70
2022/01/15 09:57:40;;;;;;;8.80;2.95;;;;;;;7.84;43.73;102922.88;5047197;28;20033;-71
2022/01/15 10:00:14;;;;;;;11.40;3.33;;;;;;;7.47;43.31;102927.88;5049675;28;20040;-71
2022/01/15 10:02:45;;;;;;;10.27;3.97;;;;;;;7.39;45.53;102919.16;5016240;28;20036;-70
2022/01/15 10:05:14;;;;;;;6.45;2.67;;;;;;;6.91;45.43;102922.28;5034533;28;20535;-71
2022/01/15 10:08:03;;;;;;;7.50;2.70;;;;;;;6.56;46.38;102918.50;5031570;28;20179;-71
2022/01/15 10:10:31;;;;;;;11.02;2.45;;;;;;;6.97;46.28;102917.97;5049118;28;20611;-71
2022/01/15 10:13:17;;;;;;;10.23;3.80;;;;;;;7.50;45.39;102913.13;5049990;28;20128;-71
2022/01/15 10:15:46;;;;;;;6.03;2.58;;;;;;;8.18;44.33;102912.56;5013082;28;20040;-71
2022/01/15 10:18:24;;;;;;;8.38;2.38;;;;;;;8.63;41.56;102909.19;5086080;27;20393;-71
2022/01/15 10:20:54;;;;;;;7.30;3.05;;;;;;;8.68;41.67;102903.97;5053585;28;20040;-72
2022/01/15 10:23:21;;;;;;;11.15;3.25;;;;;;;9.03;42.05;102906.59;5055324;28;20073;-70
2022/01/15 10:26:16;;;;;;;8.60;1.77;;;;;;;8.68;41.99;102912.66;5039522;28;20805;-70
2022/01/15 10:29:02;;;;;;;8.60;2.05;;;;;;;8.28;43.10;102909.13;5037591;28;20052;-72
2022/01/15 10:31:37;;;;;;;12.10;2.58;;;;;;;8.63;42.26;102906.59;5058406;28;20108;-71
2022/01/15 10:34:32;;;;;;;6.72;1.80;;;;;;;8.07;41.83;102905.63;5040412;28;20041;-71
2022/01/15 10:37:08;;;;;;;9.10;2.40;;;;;;;7.97;42.98;102901.22;5036861;28;20039;-71
2022/01/15 10:39:36;;;;;;;6.47;1.67;;;;;;;8.05;43.19;102894.31;5037348;28;20060;-71
2022/01/15 10:42:13;;;;;;;11.75;2.50;;;;;;;7.96;43.03;102891.69;5053819;28;20127;-70
2022/01/15 10:44:38;;;;;;;12.07;1.77;;;;;;;7.47;43.93;102896.66;5053585;28;20037;-71
2022/01/15 10:47:10;;;;;;;8.32;2.03;;;;;;;7.58;43.66;102879.41;5043249;28;20561;-70
2022/01/15 10:49:37;;;;;;;12.63;2.00;;;;;;;8.14;43.69;102878.72;5040335;28;20052;-70
2022/01/15 10:52:06;;;;;;;4.32;1.02;;;;;;;7.94;42.95;102883.88;5042239;28;20029;-71
2022/01/15 10:54:34;;;;;;;4.63;1.52;;;;;;;7.30;44.01;102871.41;5039607;28;20037;-71
2022/01/15 10:57:09;;;;;;;4.30;1.25;;;;;;;6.81;44.76;102872.81;5040055;28;20033;-70
2022/01/15 10:59:37;;;;;;;4.57;1.13;;;;;;;6.60;45.66;102863.13;5037838;28;20045;-70
2022/01/15 11:02:23;;;;;;;9.60;1.75;;;;;;;6.50;45.74;102857.81;5042616;28;20039;-70
2022/01/15 11:04:51;;;;;;;5.78;1.33;;;;;;;6.46;45.58;102870.75;5039380;28;20527;-70
2022/01/15 11:07:19;;;;;;;3.58;1.05;;;;;;;5.93;47.84;102864.16;5039570;28;20311;-70
2022/01/15 11:09:49;;;;;;;3.85;0.77;;;;;;;6.60;46.10;102851.00;5040464;28;20043;-70
2022/01/15 11:12:17;;;;;;;6.60;0.63;;;;;;;6.31;45.95;102855.94;5042763;28;20040;-70
2022/01/15 11:14:47;;;;;;;7.90;0.98;;;;;;;5.63;47.10;102849.09;5040169;28;20037;-71
2022/01/15 11:17:13;;;;;;;8.48;0.73;;;;;;;5.39;48.59;102849.63;5039867;28;20160;-70
2022/01/15 11:19:39;;;;;;;1.67;1.02;;;;;;;5.23;49.32;102845.97;5037824;28;20041;-70
2022/01/15 11:22:09;;;;;;;3.70;1.50;;;;;;;5.95;47.82;102843.38;5039589;28;20132;-70
2022/01/15 11:24:36;;;;;;;2.90;1.00;;;;;;;5.51;48.28;102841.16;5036890;28;20056;-71
2022/01/15 11:27:03;;;;;;;2.70;0.90;;;;;;;5.62;48.04;102836.97;5039296;28;20033;-72
2022/01/15 11:29:29;;;;;;;4.32;1.00;;;;;;;4.86;49.10;102848.00;5029754;28;20045;-71
2022/01/15 11:31:58;;;;;;;4.97;0.82;;;;;;;5.30;48.74;102844.31;5006103;28;20033;-70
2022/01/15 11:34:25;;;;;;;2.72;0.98;;;;;;;5.31;48.89;102838.31;5016474;28;20059;-71
2022/01/15 11:36:51;;;;;;;6.53;1.20;;;;;;;4.91;50.50;102837.72;5031361;28;21310;-70
2022/01/15 11:39:32;;;;;;;10.77;1.70;;;;;;;3.96;51.94;102845.59;5026115;28;20037;-70
2022/01/15 11:41:58;;;;;;;4.70;1.02;;;;;;;4.90;50.01;102843.75;5041790;28;20059;-70
2022/01/15 11:44:29;;;;;;;4.18;1.25;;;;;;;4.78;50.61;102837.50;5022978;28;20051;-70
2022/01/15 11:47:10;;;;;;;5.57;1.27;;;;;;;4.59;50.84;102838.06;5026815;28;20105;-70
2022/01/15 11:49:42;;;;;;;3.72;1.13;;;;;;;4.93;50.49;102828.25;5024227;28;20090;-71
2022/01/15 11:52:13;;;;;;;2.65;0.70;;;;;;;4.35;51.01;102822.97;5027710;28;20408;-71
2022/01/15 11:54:39;;;;;;;4.85;1.23;;;;;;;4.55;51.19;102821.59;5038888;28;20053;-71
2022/01/15 11:57:21;;;;;;;2.53;0.82;;;;;;;4.79;51.14;102815.94;5025291;28;20199;-71
2022/01/15 11:59:52;;;;;;;3.67;1.13;;;;;;;4.98;49.97;102811.91;5031557;28;20045;-71